BAW656B EGLL-LGSA
Flight info
| Callsign | BAW656B |
|---|---|
| Flight time | 3h 19m |
| Altitude | 35000 |
| Route | MODMI M185 MID L612 HAWKE UL612 OGULO DCT OKASI DCT OKEKO DCT MOU DCT MADIV DCT MOKIP DCT TUFTA DCT GEVEA DCT ORSUD DCT BIBAN DCT AMTEL DCT GITOD DCT GENGI DCT TOPNO DCT LATAN DCT TRL UL612 RUSOS |
| Aircraft | A320/M-SDE3FGHIRWY/LB1 |
Departure
| Time | 2026-05-07 16:37 |
|---|---|
| Airport | London Heathrow Airport (EGLL) |
Arrival
| Time | 2026-05-07 19:57 |
|---|---|
| Airport | Chania International Airport (LGSA) |
| Time | Latitude | Longitude | Altitude | Speed | Heading |
|---|---|---|---|---|---|
| 2026-05-07 16:11 | 51.46931 | -0.48647 | 91 ft | 0 kts | 360° |
| 2026-05-07 16:29 | 51.46912 | -0.48647 | 90 ft | 4 kts | 360° |
| 2026-05-07 16:30 | 51.46891 | -0.48647 | 89 ft | 4 kts | 345° |
| 2026-05-07 16:30 | 51.46877 | -0.48627 | 86 ft | 4 kts | 272° |
| 2026-05-07 16:30 | 51.46877 | -0.48593 | 86 ft | 1 kts | 270° |
| 2026-05-07 16:30 | 51.46877 | -0.48592 | 86 ft | 0 kts | 270° |
| 2026-05-07 16:33 | 51.46877 | -0.48599 | 86 ft | 1 kts | 270° |
| 2026-05-07 16:33 | 51.46877 | -0.48619 | 89 ft | 0 kts | 270° |
| 2026-05-07 16:34 | 51.46877 | -0.48621 | 89 ft | 1 kts | 270° |
| 2026-05-07 16:34 | 51.46877 | -0.48640 | 87 ft | 2 kts | 270° |
| 2026-05-07 16:34 | 51.46877 | -0.48677 | 87 ft | 4 kts | 270° |
| 2026-05-07 16:34 | 51.46874 | -0.48729 | 88 ft | 5 kts | 253° |
| 2026-05-07 16:35 | 51.46843 | -0.48750 | 89 ft | 6 kts | 189° |
| 2026-05-07 16:35 | 51.46799 | -0.48749 | 86 ft | 7 kts | 179° |
| 2026-05-07 16:35 | 51.46743 | -0.48749 | 86 ft | 9 kts | 180° |
| 2026-05-07 16:35 | 51.46676 | -0.48748 | 86 ft | 10 kts | 179° |
| 2026-05-07 16:36 | 51.46601 | -0.48766 | 90 ft | 12 kts | 200° |
| 2026-05-07 16:36 | 51.46518 | -0.48779 | 88 ft | 13 kts | 162° |
| 2026-05-07 16:36 | 51.46479 | -0.48691 | 86 ft | 6 kts | 92° |
| 2026-05-07 16:36 | 51.46478 | -0.48571 | 86 ft | 30 kts | 89° |
| 2026-05-07 16:37 | 51.46479 | -0.47845 | 88 ft | 97 kts | 89° |
| 2026-05-07 16:37 | 51.46482 | -0.46471 | 88 ft | 147 kts | 90° |
| 2026-05-07 16:37 | 51.46479 | -0.44690 | 500 ft | 157 kts | 92° |
| 2026-05-07 16:37 | 51.46476 | -0.42938 | 1189 ft | 159 kts | 91° |
| 2026-05-07 16:38 | 51.46288 | -0.41118 | 1589 ft | 176 kts | 121° |
| 2026-05-07 16:38 | 51.45567 | -0.39412 | 1881 ft | 196 kts | 127° |
| 2026-05-07 16:38 | 51.44554 | -0.37826 | 2115 ft | 215 kts | 156° |
| 2026-05-07 16:38 | 51.43082 | -0.36963 | 2443 ft | 236 kts | 163° |
| 2026-05-07 16:39 | 51.41465 | -0.36117 | 2890 ft | 251 kts | 166° |
| 2026-05-07 16:39 | 51.39714 | -0.35964 | 3602 ft | 256 kts | 191° |
| 2026-05-07 16:39 | 51.38042 | -0.36985 | 4361 ft | 260 kts | 206° |
| 2026-05-07 16:39 | 51.36407 | -0.38278 | 5142 ft | 265 kts | 206° |
| 2026-05-07 16:40 | 51.34764 | -0.39585 | 5909 ft | 268 kts | 206° |
| 2026-05-07 16:40 | 51.33076 | -0.40921 | 6673 ft | 272 kts | 206° |
| 2026-05-07 16:40 | 51.31367 | -0.42263 | 7399 ft | 275 kts | 206° |
| 2026-05-07 16:40 | 51.29605 | -0.43447 | 8203 ft | 275 kts | 194° |
| 2026-05-07 16:41 | 51.27705 | -0.43584 | 8981 ft | 278 kts | 171° |
| 2026-05-07 16:41 | 51.25836 | -0.42703 | 9711 ft | 281 kts | 162° |
| 2026-05-07 16:41 | 51.23970 | -0.41682 | 10254 ft | 291 kts | 162° |
| 2026-05-07 16:41 | 51.22008 | -0.40592 | 10541 ft | 307 kts | 162° |
| 2026-05-07 16:42 | 51.19938 | -0.39435 | 10793 ft | 323 kts | 162° |
| 2026-05-07 16:42 | 51.17764 | -0.38223 | 11046 ft | 339 kts | 162° |
| 2026-05-07 16:42 | 51.15486 | -0.36961 | 11414 ft | 348 kts | 162° |
| 2026-05-07 16:42 | 51.13205 | -0.35703 | 12083 ft | 348 kts | 162° |
| 2026-05-07 16:43 | 51.10903 | -0.34442 | 12688 ft | 351 kts | 162° |
| 2026-05-07 16:43 | 51.08587 | -0.33179 | 13301 ft | 353 kts | 162° |
| 2026-05-07 16:43 | 51.06254 | -0.31907 | 13886 ft | 356 kts | 162° |
| 2026-05-07 16:43 | 51.03903 | -0.30624 | 14410 ft | 359 kts | 162° |
| 2026-05-07 16:44 | 51.01528 | -0.29328 | 14912 ft | 362 kts | 162° |
| 2026-05-07 16:44 | 50.99133 | -0.28023 | 15411 ft | 366 kts | 162° |
| 2026-05-07 16:44 | 50.96718 | -0.26709 | 15894 ft | 369 kts | 162° |
| 2026-05-07 16:44 | 50.94280 | -0.25382 | 16395 ft | 372 kts | 163° |
| 2026-05-07 16:45 | 50.91824 | -0.24049 | 16886 ft | 375 kts | 163° |
| 2026-05-07 16:45 | 50.90182 | -0.23157 | 17210 ft | 377 kts | 163° |
| 2026-05-07 16:45 | 50.87686 | -0.21806 | 17683 ft | 381 kts | 163° |
| 2026-05-07 16:45 | 50.85169 | -0.20446 | 18171 ft | 384 kts | 163° |
| 2026-05-07 16:46 | 50.82629 | -0.19076 | 18624 ft | 387 kts | 163° |
| 2026-05-07 16:46 | 50.80070 | -0.17697 | 19066 ft | 389 kts | 163° |
| 2026-05-07 16:46 | 50.77499 | -0.16312 | 19513 ft | 392 kts | 163° |
| 2026-05-07 16:46 | 50.74904 | -0.14913 | 19970 ft | 394 kts | 163° |
| 2026-05-07 16:47 | 50.72298 | -0.13506 | 20421 ft | 397 kts | 163° |
| 2026-05-07 16:47 | 50.69683 | -0.12098 | 20846 ft | 399 kts | 163° |
| 2026-05-07 16:47 | 50.67041 | -0.10677 | 21264 ft | 401 kts | 163° |
| 2026-05-07 16:47 | 50.64392 | -0.09257 | 21664 ft | 403 kts | 163° |
| 2026-05-07 16:48 | 50.61730 | -0.07833 | 22090 ft | 405 kts | 163° |
| 2026-05-07 16:48 | 50.59053 | -0.06404 | 22493 ft | 407 kts | 163° |
| 2026-05-07 16:48 | 50.56366 | -0.04970 | 22884 ft | 409 kts | 163° |
| 2026-05-07 16:48 | 50.53662 | -0.03529 | 23277 ft | 411 kts | 163° |
| 2026-05-07 16:49 | 50.50943 | -0.02082 | 23654 ft | 413 kts | 163° |
| 2026-05-07 16:49 | 50.48215 | -0.00628 | 23955 ft | 416 kts | 163° |
| 2026-05-07 16:49 | 50.45493 | 0.00995 | 24245 ft | 420 kts | 157° |
| 2026-05-07 16:49 | 50.42935 | 0.03264 | 24543 ft | 425 kts | 148° |
| 2026-05-07 16:50 | 50.40494 | 0.05807 | 24840 ft | 426 kts | 148° |
| 2026-05-07 16:50 | 50.38019 | 0.08379 | 25159 ft | 428 kts | 149° |
| 2026-05-07 16:50 | 50.35532 | 0.10958 | 25466 ft | 429 kts | 149° |
| 2026-05-07 16:50 | 50.33034 | 0.13540 | 25765 ft | 431 kts | 149° |
| 2026-05-07 16:51 | 50.30523 | 0.16133 | 26064 ft | 433 kts | 149° |
| 2026-05-07 16:51 | 50.28001 | 0.18731 | 26372 ft | 435 kts | 149° |
| 2026-05-07 16:51 | 50.25468 | 0.21331 | 26671 ft | 437 kts | 149° |
| 2026-05-07 16:51 | 50.22909 | 0.23949 | 26956 ft | 439 kts | 149° |
| 2026-05-07 16:52 | 50.20341 | 0.26573 | 27271 ft | 441 kts | 149° |
| 2026-05-07 16:52 | 50.17771 | 0.29204 | 27564 ft | 443 kts | 149° |
| 2026-05-07 16:52 | 50.15183 | 0.31867 | 27869 ft | 444 kts | 149° |
| 2026-05-07 16:52 | 50.12598 | 0.34528 | 28156 ft | 446 kts | 149° |
| 2026-05-07 16:53 | 50.10000 | 0.37199 | 28438 ft | 448 kts | 149° |
| 2026-05-07 16:53 | 50.07391 | 0.39879 | 28718 ft | 450 kts | 149° |
| 2026-05-07 16:53 | 50.04805 | 0.42533 | 28995 ft | 452 kts | 149° |
| 2026-05-07 16:53 | 50.02176 | 0.45224 | 29267 ft | 454 kts | 149° |
| 2026-05-07 16:54 | 49.99530 | 0.47922 | 29510 ft | 456 kts | 149° |
| 2026-05-07 16:54 | 49.96865 | 0.50631 | 29779 ft | 459 kts | 149° |
| 2026-05-07 16:54 | 49.94189 | 0.53345 | 30058 ft | 460 kts | 149° |
| 2026-05-07 16:54 | 49.91516 | 0.56058 | 30414 ft | 459 kts | 149° |
| 2026-05-07 16:55 | 49.88852 | 0.58762 | 30762 ft | 457 kts | 149° |
| 2026-05-07 16:55 | 49.86194 | 0.61473 | 31095 ft | 457 kts | 147° |
| 2026-05-07 16:55 | 49.83679 | 0.64504 | 31415 ft | 458 kts | 143° |
| 2026-05-07 16:55 | 49.81214 | 0.67623 | 31747 ft | 457 kts | 143° |
| 2026-05-07 16:56 | 49.78749 | 0.70729 | 32073 ft | 457 kts | 143° |
| 2026-05-07 16:56 | 49.76282 | 0.73826 | 32398 ft | 456 kts | 143° |
| 2026-05-07 16:56 | 49.71359 | 0.80003 | 33070 ft | 455 kts | 143° |
| 2026-05-07 16:57 | 49.68898 | 0.83084 | 33414 ft | 454 kts | 143° |
| 2026-05-07 16:57 | 49.66445 | 0.86159 | 33737 ft | 454 kts | 143° |
| 2026-05-07 16:57 | 49.63999 | 0.89216 | 34059 ft | 453 kts | 143° |
| 2026-05-07 16:57 | 49.61543 | 0.92273 | 34327 ft | 453 kts | 143° |
| 2026-05-07 16:58 | 49.59089 | 0.95327 | 34588 ft | 453 kts | 143° |
| 2026-05-07 16:58 | 49.56639 | 0.98378 | 34852 ft | 453 kts | 143° |
| 2026-05-07 16:58 | 49.54178 | 1.01437 | 35014 ft | 454 kts | 143° |
| 2026-05-07 16:58 | 49.51713 | 1.04490 | 35045 ft | 455 kts | 144° |
| 2026-05-07 16:59 | 49.46775 | 1.10604 | 35056 ft | 455 kts | 143° |
| 2026-05-07 16:59 | 49.41872 | 1.16649 | 35056 ft | 455 kts | 144° |
| 2026-05-07 17:00 | 49.36932 | 1.22723 | 35059 ft | 455 kts | 144° |
| 2026-05-07 17:00 | 49.31992 | 1.28796 | 35056 ft | 455 kts | 144° |
| 2026-05-07 17:01 | 49.27046 | 1.34858 | 35048 ft | 455 kts | 144° |
| 2026-05-07 17:01 | 49.22098 | 1.40918 | 35048 ft | 455 kts | 144° |
| 2026-05-07 17:02 | 49.17143 | 1.46960 | 35042 ft | 456 kts | 144° |
| 2026-05-07 17:02 | 49.12175 | 1.53000 | 35043 ft | 456 kts | 144° |
| 2026-05-07 17:03 | 49.07203 | 1.59020 | 35042 ft | 456 kts | 144° |
| 2026-05-07 17:03 | 49.02233 | 1.65024 | 35037 ft | 456 kts | 144° |
| 2026-05-07 17:04 | 48.97254 | 1.71034 | 35042 ft | 456 kts | 144° |
| 2026-05-07 17:04 | 48.92274 | 1.77038 | 35037 ft | 456 kts | 144° |
| 2026-05-07 17:05 | 48.87287 | 1.83022 | 35036 ft | 457 kts | 144° |
| 2026-05-07 17:05 | 48.82301 | 1.89001 | 35040 ft | 457 kts | 144° |
| 2026-05-07 17:06 | 48.77299 | 1.94979 | 35040 ft | 457 kts | 144° |
| 2026-05-07 17:06 | 48.72330 | 2.00888 | 35041 ft | 457 kts | 144° |
| 2026-05-07 17:07 | 48.67324 | 2.06831 | 35040 ft | 457 kts | 144° |
| 2026-05-07 17:07 | 48.62318 | 2.12750 | 35035 ft | 457 kts | 144° |
| 2026-05-07 17:08 | 48.57307 | 2.18682 | 35033 ft | 458 kts | 142° |
| 2026-05-07 17:08 | 48.52741 | 2.25445 | 35040 ft | 460 kts | 137° |
| 2026-05-07 17:09 | 48.48216 | 2.32323 | 35048 ft | 461 kts | 137° |
| 2026-05-07 17:09 | 48.43695 | 2.39173 | 35052 ft | 461 kts | 137° |
| 2026-05-07 17:10 | 48.39194 | 2.45964 | 35041 ft | 461 kts | 138° |
| 2026-05-07 17:10 | 48.34660 | 2.52785 | 35045 ft | 461 kts | 138° |
| 2026-05-07 17:11 | 48.30101 | 2.59579 | 35039 ft | 460 kts | 141° |
| 2026-05-07 17:11 | 48.24842 | 2.64861 | 35032 ft | 452 kts | 159° |
| 2026-05-07 17:12 | 48.19141 | 2.68867 | 35025 ft | 454 kts | 156° |
| 2026-05-07 17:12 | 48.13567 | 2.73349 | 35029 ft | 455 kts | 154° |
| 2026-05-07 17:13 | 48.08024 | 2.77923 | 35029 ft | 454 kts | 158° |
| 2026-05-07 17:13 | 48.02246 | 2.81695 | 35035 ft | 453 kts | 160° |
| 2026-05-07 17:14 | 47.96483 | 2.85333 | 35027 ft | 453 kts | 160° |
| 2026-05-07 17:14 | 47.90678 | 2.88994 | 35037 ft | 453 kts | 160° |
| 2026-05-07 17:15 | 47.84872 | 2.92672 | 35033 ft | 453 kts | 160° |
| 2026-05-07 17:15 | 47.79069 | 2.96338 | 35026 ft | 453 kts | 160° |
| 2026-05-07 17:16 | 47.73255 | 2.99999 | 35018 ft | 453 kts | 161° |
| 2026-05-07 17:16 | 47.67441 | 3.03653 | 35006 ft | 453 kts | 161° |
| 2026-05-07 17:17 | 47.61631 | 3.07303 | 35016 ft | 453 kts | 161° |
| 2026-05-07 17:17 | 47.55815 | 3.10940 | 35013 ft | 454 kts | 161° |
| 2026-05-07 17:18 | 47.49998 | 3.14564 | 35017 ft | 454 kts | 161° |
| 2026-05-07 17:18 | 47.44180 | 3.18182 | 35012 ft | 453 kts | 161° |
| 2026-05-07 17:19 | 47.38366 | 3.21792 | 35017 ft | 453 kts | 161° |
| 2026-05-07 17:19 | 47.32547 | 3.25398 | 34999 ft | 453 kts | 161° |
| 2026-05-07 17:20 | 47.26730 | 3.28988 | 35003 ft | 453 kts | 161° |
| 2026-05-07 17:20 | 47.20942 | 3.32548 | 34994 ft | 453 kts | 161° |
| 2026-05-07 17:21 | 47.15230 | 3.36510 | 35004 ft | 460 kts | 148° |
| 2026-05-07 17:21 | 47.12871 | 3.39732 | 34984 ft | 468 kts | 131° |
| 2026-05-07 17:21 | 47.11185 | 3.43834 | 34984 ft | 474 kts | 116° |
| 2026-05-07 17:22 | 47.08716 | 3.52854 | 34979 ft | 476 kts | 115° |
| 2026-05-07 17:22 | 47.06262 | 3.61892 | 34979 ft | 478 kts | 115° |
| 2026-05-07 17:23 | 47.03786 | 3.70944 | 34982 ft | 478 kts | 115° |
| 2026-05-07 17:23 | 47.01288 | 3.79997 | 34986 ft | 479 kts | 115° |
| 2026-05-07 17:24 | 46.98781 | 3.89036 | 34993 ft | 479 kts | 115° |
| 2026-05-07 17:24 | 46.96271 | 3.98077 | 34994 ft | 479 kts | 115° |
| 2026-05-07 17:25 | 46.93755 | 4.07097 | 34999 ft | 479 kts | 115° |
| 2026-05-07 17:25 | 46.91240 | 4.16111 | 34992 ft | 479 kts | 115° |
| 2026-05-07 17:26 | 46.88700 | 4.25133 | 34976 ft | 479 kts | 115° |
| 2026-05-07 17:26 | 46.86166 | 4.34083 | 34983 ft | 479 kts | 115° |
| 2026-05-07 17:27 | 46.83624 | 4.43084 | 34994 ft | 479 kts | 115° |
| 2026-05-07 17:27 | 46.81076 | 4.52093 | 34996 ft | 479 kts | 115° |
| 2026-05-07 17:28 | 46.78508 | 4.61087 | 34998 ft | 480 kts | 116° |
| 2026-05-07 17:28 | 46.76363 | 4.68561 | 34999 ft | 480 kts | 116° |
| 2026-05-07 17:29 | 46.73786 | 4.77549 | 35000 ft | 480 kts | 116° |
| 2026-05-07 17:29 | 46.71207 | 4.86532 | 35001 ft | 480 kts | 116° |
| 2026-05-07 17:30 | 46.68616 | 4.95497 | 34994 ft | 481 kts | 116° |
| 2026-05-07 17:30 | 46.66010 | 5.04465 | 35004 ft | 481 kts | 116° |
| 2026-05-07 17:31 | 46.63390 | 5.13427 | 35004 ft | 481 kts | 116° |
| 2026-05-07 17:31 | 46.60766 | 5.22399 | 35008 ft | 481 kts | 116° |
| 2026-05-07 17:32 | 46.58157 | 5.31290 | 34999 ft | 482 kts | 116° |
| 2026-05-07 17:32 | 46.55520 | 5.40244 | 35005 ft | 482 kts | 116° |
| 2026-05-07 17:33 | 46.52868 | 5.49215 | 35006 ft | 482 kts | 116° |
| 2026-05-07 17:33 | 46.50218 | 5.58168 | 35009 ft | 482 kts | 116° |
| 2026-05-07 17:34 | 46.47562 | 5.67119 | 35006 ft | 482 kts | 116° |
| 2026-05-07 17:34 | 46.44887 | 5.76056 | 35007 ft | 483 kts | 116° |
| 2026-05-07 17:35 | 46.42201 | 5.84981 | 35014 ft | 483 kts | 116° |
| 2026-05-07 17:35 | 46.39512 | 5.93906 | 35003 ft | 483 kts | 116° |
| 2026-05-07 17:36 | 46.36842 | 6.02771 | 35006 ft | 482 kts | 117° |
| 2026-05-07 17:36 | 46.34146 | 6.11676 | 35002 ft | 483 kts | 116° |
| 2026-05-07 17:37 | 46.31441 | 6.20571 | 35000 ft | 483 kts | 117° |
| 2026-05-07 17:37 | 46.28722 | 6.29462 | 34999 ft | 483 kts | 117° |
| 2026-05-07 17:38 | 46.26005 | 6.38352 | 35005 ft | 483 kts | 117° |
| 2026-05-07 17:38 | 46.23294 | 6.47178 | 34995 ft | 483 kts | 117° |
| 2026-05-07 17:39 | 46.20560 | 6.56023 | 34995 ft | 483 kts | 117° |
| 2026-05-07 17:39 | 46.17812 | 6.64890 | 34997 ft | 484 kts | 117° |
| 2026-05-07 17:40 | 46.15059 | 6.73755 | 34997 ft | 483 kts | 117° |
| 2026-05-07 17:40 | 46.12303 | 6.82607 | 34999 ft | 484 kts | 117° |
| 2026-05-07 17:41 | 46.09533 | 6.91452 | 35006 ft | 484 kts | 117° |
| 2026-05-07 17:41 | 46.06759 | 7.00294 | 34996 ft | 484 kts | 117° |
| 2026-05-07 17:42 | 46.03986 | 7.09111 | 34985 ft | 483 kts | 117° |
| 2026-05-07 17:42 | 46.01204 | 7.17922 | 34981 ft | 484 kts | 118° |
| 2026-05-07 17:43 | 45.98404 | 7.26745 | 34974 ft | 485 kts | 118° |
| 2026-05-07 17:43 | 45.95596 | 7.35559 | 34948 ft | 485 kts | 118° |
| 2026-05-07 17:44 | 45.92618 | 7.44275 | 34940 ft | 482 kts | 126° |
| 2026-05-07 17:44 | 45.88510 | 7.51763 | 35006 ft | 476 kts | 136° |
| 2026-05-07 17:45 | 45.84160 | 7.58936 | 35010 ft | 476 kts | 135° |
| 2026-05-07 17:45 | 45.79823 | 7.66110 | 35016 ft | 476 kts | 135° |
| 2026-05-07 17:46 | 45.75503 | 7.73214 | 35012 ft | 476 kts | 136° |
| 2026-05-07 17:46 | 45.71137 | 7.80344 | 35017 ft | 476 kts | 136° |
| 2026-05-07 17:47 | 45.66782 | 7.87462 | 34990 ft | 476 kts | 136° |
| 2026-05-07 17:47 | 45.62412 | 7.94596 | 34991 ft | 476 kts | 136° |
| 2026-05-07 17:48 | 45.58030 | 8.01709 | 34993 ft | 477 kts | 136° |
| 2026-05-07 17:48 | 45.53646 | 8.08825 | 34992 ft | 477 kts | 136° |
| 2026-05-07 17:49 | 45.49288 | 8.15883 | 34993 ft | 477 kts | 136° |
| 2026-05-07 17:49 | 45.44900 | 8.22956 | 34972 ft | 477 kts | 136° |
| 2026-05-07 17:50 | 45.40504 | 8.30039 | 34978 ft | 477 kts | 136° |
| 2026-05-07 17:50 | 45.36091 | 8.37130 | 34980 ft | 477 kts | 137° |
| 2026-05-07 17:51 | 45.31683 | 8.44189 | 35003 ft | 477 kts | 137° |
| 2026-05-07 17:51 | 45.27273 | 8.51239 | 35005 ft | 477 kts | 137° |
| 2026-05-07 17:52 | 45.22866 | 8.58264 | 34984 ft | 477 kts | 137° |
| 2026-05-07 17:52 | 45.18439 | 8.65299 | 34987 ft | 478 kts | 137° |
| 2026-05-07 17:53 | 45.14006 | 8.72320 | 34976 ft | 478 kts | 137° |
| 2026-05-07 17:53 | 45.09566 | 8.79339 | 34989 ft | 478 kts | 137° |
| 2026-05-07 17:54 | 45.05122 | 8.86351 | 34982 ft | 478 kts | 137° |
| 2026-05-07 17:54 | 45.00701 | 8.93306 | 34965 ft | 479 kts | 138° |
| 2026-05-07 17:55 | 44.96240 | 9.00310 | 34976 ft | 479 kts | 138° |
| 2026-05-07 17:55 | 44.91776 | 9.07306 | 34983 ft | 480 kts | 138° |
| 2026-05-07 17:56 | 44.87315 | 9.14267 | 34989 ft | 480 kts | 138° |
| 2026-05-07 17:56 | 44.82813 | 9.21272 | 34977 ft | 480 kts | 138° |
| 2026-05-07 17:57 | 44.79078 | 9.27073 | 34964 ft | 481 kts | 139° |
| 2026-05-07 17:57 | 44.73822 | 9.35220 | 34982 ft | 481 kts | 139° |
| 2026-05-07 17:58 | 44.69321 | 9.42182 | 34985 ft | 481 kts | 139° |
| 2026-05-07 17:58 | 44.64810 | 9.49138 | 34980 ft | 481 kts | 139° |
| 2026-05-07 17:59 | 44.60293 | 9.56080 | 34984 ft | 482 kts | 139° |
| 2026-05-07 17:59 | 44.55771 | 9.63016 | 34976 ft | 482 kts | 139° |
| 2026-05-07 18:00 | 44.51234 | 9.69969 | 34989 ft | 483 kts | 139° |
| 2026-05-07 18:00 | 44.46693 | 9.76915 | 34999 ft | 483 kts | 139° |
| 2026-05-07 18:01 | 44.42145 | 9.83845 | 35001 ft | 483 kts | 139° |
| 2026-05-07 18:01 | 44.37584 | 9.90753 | 35008 ft | 483 kts | 139° |
| 2026-05-07 18:02 | 44.30777 | 10.01065 | 35037 ft | 483 kts | 139° |
| 2026-05-07 18:03 | 44.26216 | 10.07964 | 35019 ft | 483 kts | 139° |
| 2026-05-07 18:03 | 44.21644 | 10.14847 | 35022 ft | 483 kts | 140° |
| 2026-05-07 18:04 | 44.17070 | 10.21723 | 35018 ft | 483 kts | 139° |
| 2026-05-07 18:04 | 44.12492 | 10.28579 | 35020 ft | 483 kts | 140° |
| 2026-05-07 18:05 | 44.07940 | 10.35382 | 35056 ft | 483 kts | 140° |
| 2026-05-07 18:05 | 44.03361 | 10.42226 | 35048 ft | 483 kts | 140° |
| 2026-05-07 18:06 | 43.98772 | 10.49058 | 35059 ft | 483 kts | 140° |
| 2026-05-07 18:06 | 43.94180 | 10.55866 | 35044 ft | 483 kts | 140° |
| 2026-05-07 18:07 | 43.89585 | 10.62670 | 35009 ft | 483 kts | 140° |
| 2026-05-07 18:07 | 43.84981 | 10.69464 | 34995 ft | 483 kts | 140° |
| 2026-05-07 18:08 | 43.80406 | 10.76203 | 34991 ft | 483 kts | 140° |
| 2026-05-07 18:08 | 43.75798 | 10.82973 | 34976 ft | 483 kts | 140° |
| 2026-05-07 18:09 | 43.71932 | 10.88644 | 34978 ft | 483 kts | 140° |
| 2026-05-07 18:09 | 43.67322 | 10.95403 | 34956 ft | 483 kts | 140° |
| 2026-05-07 18:10 | 43.62706 | 11.02148 | 34974 ft | 483 kts | 140° |
| 2026-05-07 18:10 | 43.58085 | 11.08882 | 34986 ft | 482 kts | 140° |
| 2026-05-07 18:11 | 43.53486 | 11.15554 | 34990 ft | 482 kts | 140° |
| 2026-05-07 18:11 | 43.48860 | 11.22260 | 34988 ft | 483 kts | 140° |
| 2026-05-07 18:12 | 43.44235 | 11.28962 | 34978 ft | 482 kts | 141° |
| 2026-05-07 18:12 | 43.39604 | 11.35649 | 34969 ft | 482 kts | 141° |
| 2026-05-07 18:13 | 43.34967 | 11.42315 | 34975 ft | 482 kts | 141° |
| 2026-05-07 18:13 | 43.30326 | 11.48968 | 34975 ft | 482 kts | 141° |
| 2026-05-07 18:14 | 43.25678 | 11.55623 | 34979 ft | 482 kts | 141° |
| 2026-05-07 18:14 | 43.21053 | 11.62293 | 34965 ft | 484 kts | 139° |
| 2026-05-07 18:15 | 43.16713 | 11.69390 | 34966 ft | 488 kts | 135° |
| 2026-05-07 18:15 | 43.12549 | 11.76742 | 34971 ft | 488 kts | 135° |
| 2026-05-07 18:16 | 43.08343 | 11.84019 | 34985 ft | 486 kts | 136° |
| 2026-05-07 18:16 | 43.04095 | 11.91132 | 34990 ft | 485 kts | 137° |
| 2026-05-07 18:17 | 42.99791 | 11.98254 | 34964 ft | 485 kts | 137° |
| 2026-05-07 18:17 | 42.95508 | 12.05371 | 34957 ft | 485 kts | 137° |
| 2026-05-07 18:18 | 42.91220 | 12.12502 | 34964 ft | 485 kts | 137° |
| 2026-05-07 18:18 | 42.86941 | 12.19624 | 34961 ft | 485 kts | 137° |
| 2026-05-07 18:19 | 42.82655 | 12.26730 | 34964 ft | 485 kts | 137° |
| 2026-05-07 18:19 | 42.78391 | 12.33867 | 34965 ft | 487 kts | 135° |
| 2026-05-07 18:20 | 42.74357 | 12.41315 | 34923 ft | 490 kts | 133° |
| 2026-05-07 18:20 | 42.70429 | 12.48877 | 34951 ft | 489 kts | 133° |
| 2026-05-07 18:21 | 42.66455 | 12.56370 | 34978 ft | 488 kts | 133° |
| 2026-05-07 18:21 | 42.62422 | 12.63780 | 34984 ft | 486 kts | 134° |
| 2026-05-07 18:22 | 42.58397 | 12.71153 | 34992 ft | 487 kts | 134° |
| 2026-05-07 18:22 | 42.54368 | 12.78548 | 34993 ft | 487 kts | 134° |
| 2026-05-07 18:23 | 42.50341 | 12.85950 | 35012 ft | 487 kts | 134° |
| 2026-05-07 18:23 | 42.46316 | 12.93327 | 35004 ft | 487 kts | 133° |
| 2026-05-07 18:24 | 42.42309 | 13.00641 | 35008 ft | 486 kts | 134° |
| 2026-05-07 18:24 | 42.38415 | 13.08153 | 35005 ft | 490 kts | 128° |
| 2026-05-07 18:25 | 42.34869 | 13.16033 | 34985 ft | 491 kts | 128° |
| 2026-05-07 18:25 | 42.31317 | 13.23939 | 34989 ft | 490 kts | 128° |
| 2026-05-07 18:26 | 42.27759 | 13.31799 | 35003 ft | 491 kts | 128° |
| 2026-05-07 18:26 | 42.24183 | 13.39649 | 35008 ft | 490 kts | 128° |
| 2026-05-07 18:27 | 42.20596 | 13.47486 | 35001 ft | 491 kts | 128° |
| 2026-05-07 18:27 | 42.17020 | 13.55321 | 34991 ft | 492 kts | 128° |
| 2026-05-07 18:28 | 42.13449 | 13.63142 | 34992 ft | 493 kts | 127° |
| 2026-05-07 18:28 | 42.09845 | 13.71008 | 34994 ft | 493 kts | 128° |
| 2026-05-07 18:29 | 42.06224 | 13.78875 | 35016 ft | 495 kts | 128° |
| 2026-05-07 18:29 | 42.02601 | 13.86740 | 35019 ft | 494 kts | 128° |
| 2026-05-07 18:30 | 41.98957 | 13.94602 | 35009 ft | 495 kts | 128° |
| 2026-05-07 18:30 | 41.95302 | 14.02469 | 35010 ft | 496 kts | 128° |
| 2026-05-07 18:31 | 41.91640 | 14.10335 | 35008 ft | 496 kts | 128° |
| 2026-05-07 18:31 | 41.87976 | 14.18203 | 35017 ft | 497 kts | 128° |
| 2026-05-07 18:32 | 41.84301 | 14.26063 | 35011 ft | 497 kts | 128° |
| 2026-05-07 18:32 | 41.80622 | 14.33917 | 35014 ft | 497 kts | 128° |
| 2026-05-07 18:33 | 41.76945 | 14.41756 | 35011 ft | 497 kts | 128° |
| 2026-05-07 18:33 | 41.73278 | 14.49544 | 35013 ft | 497 kts | 128° |
| 2026-05-07 18:34 | 41.69581 | 14.57359 | 35012 ft | 497 kts | 128° |
| 2026-05-07 18:34 | 41.65883 | 14.65169 | 34987 ft | 497 kts | 129° |
| 2026-05-07 18:35 | 41.62180 | 14.72962 | 34993 ft | 497 kts | 129° |
| 2026-05-07 18:35 | 41.58473 | 14.80761 | 34996 ft | 497 kts | 129° |
| 2026-05-07 18:36 | 41.54755 | 14.88552 | 35000 ft | 497 kts | 129° |
| 2026-05-07 18:36 | 41.51028 | 14.96335 | 34983 ft | 497 kts | 129° |
| 2026-05-07 18:37 | 41.47292 | 15.04104 | 34977 ft | 498 kts | 129° |
| 2026-05-07 18:37 | 41.43557 | 15.11879 | 34977 ft | 498 kts | 129° |
| 2026-05-07 18:38 | 41.39813 | 15.19661 | 34983 ft | 498 kts | 129° |
| 2026-05-07 18:38 | 41.36078 | 15.27382 | 34962 ft | 499 kts | 130° |
| 2026-05-07 18:39 | 41.32303 | 15.35173 | 34960 ft | 501 kts | 130° |
| 2026-05-07 18:39 | 41.28502 | 15.42978 | 34984 ft | 503 kts | 130° |
| 2026-05-07 18:40 | 41.24697 | 15.50805 | 34980 ft | 504 kts | 130° |
| 2026-05-07 18:40 | 41.20879 | 15.58628 | 34984 ft | 505 kts | 130° |
| 2026-05-07 18:41 | 41.17050 | 15.66449 | 34952 ft | 505 kts | 131° |
| 2026-05-07 18:41 | 41.13202 | 15.74269 | 34955 ft | 507 kts | 131° |
| 2026-05-07 18:42 | 41.09431 | 15.81941 | 34938 ft | 508 kts | 131° |
| 2026-05-07 18:42 | 41.05547 | 15.89812 | 34976 ft | 512 kts | 131° |
| 2026-05-07 18:43 | 41.01641 | 15.97720 | 34993 ft | 512 kts | 131° |
| 2026-05-07 18:43 | 40.97739 | 16.05605 | 34985 ft | 513 kts | 131° |
| 2026-05-07 18:44 | 40.93785 | 16.13475 | 34991 ft | 513 kts | 133° |
| 2026-05-07 18:44 | 40.89634 | 16.21123 | 35001 ft | 511 kts | 135° |
| 2026-05-07 18:45 | 40.85381 | 16.28654 | 35015 ft | 511 kts | 135° |
| 2026-05-07 18:45 | 40.81183 | 16.36161 | 34962 ft | 512 kts | 135° |
| 2026-05-07 18:46 | 40.76978 | 16.43792 | 34981 ft | 514 kts | 135° |
| 2026-05-07 18:46 | 40.72766 | 16.51424 | 35006 ft | 515 kts | 135° |
| 2026-05-07 18:47 | 40.68540 | 16.59049 | 35019 ft | 515 kts | 135° |
| 2026-05-07 18:47 | 40.64296 | 16.66671 | 35040 ft | 515 kts | 135° |
| 2026-05-07 18:48 | 40.60051 | 16.74277 | 35027 ft | 515 kts | 135° |
| 2026-05-07 18:48 | 40.55800 | 16.81883 | 35029 ft | 516 kts | 135° |
| 2026-05-07 18:49 | 40.51539 | 16.89479 | 34997 ft | 516 kts | 135° |
| 2026-05-07 18:49 | 40.47268 | 16.97066 | 35001 ft | 517 kts | 136° |
| 2026-05-07 18:50 | 40.43716 | 17.03374 | 35006 ft | 517 kts | 135° |
| 2026-05-07 18:50 | 40.39443 | 17.10969 | 34993 ft | 518 kts | 135° |
| 2026-05-07 18:51 | 40.34448 | 17.19805 | 35004 ft | 519 kts | 135° |
| 2026-05-07 18:51 | 40.30836 | 17.26156 | 35010 ft | 519 kts | 135° |
| 2026-05-07 18:52 | 40.26516 | 17.33750 | 35018 ft | 520 kts | 135° |
| 2026-05-07 18:52 | 40.22191 | 17.41342 | 34994 ft | 520 kts | 135° |
| 2026-05-07 18:53 | 40.17870 | 17.48910 | 35029 ft | 519 kts | 135° |
| 2026-05-07 18:53 | 40.13565 | 17.56419 | 35034 ft | 519 kts | 135° |
| 2026-05-07 18:54 | 40.09235 | 17.63961 | 35034 ft | 518 kts | 135° |
| 2026-05-07 18:54 | 40.04907 | 17.71490 | 35034 ft | 518 kts | 135° |
| 2026-05-07 18:55 | 40.00576 | 17.79003 | 35032 ft | 517 kts | 134° |
| 2026-05-07 18:55 | 39.96242 | 17.86484 | 35027 ft | 517 kts | 134° |
| 2026-05-07 18:56 | 39.91901 | 17.93970 | 35022 ft | 517 kts | 134° |
| 2026-05-07 18:56 | 39.87564 | 18.01457 | 35023 ft | 517 kts | 134° |
| 2026-05-07 18:57 | 39.83217 | 18.08927 | 35032 ft | 517 kts | 134° |
| 2026-05-07 18:57 | 39.78854 | 18.16387 | 35039 ft | 517 kts | 134° |
| 2026-05-07 18:58 | 39.74525 | 18.23772 | 35043 ft | 517 kts | 134° |
| 2026-05-07 18:58 | 39.70162 | 18.31213 | 35044 ft | 517 kts | 134° |
| 2026-05-07 18:59 | 39.65808 | 18.38628 | 35042 ft | 516 kts | 134° |
| 2026-05-07 18:59 | 39.61445 | 18.46040 | 35008 ft | 517 kts | 134° |
| 2026-05-07 19:00 | 39.57068 | 18.53450 | 35012 ft | 518 kts | 134° |
| 2026-05-07 19:00 | 39.52703 | 18.60828 | 35028 ft | 519 kts | 134° |
| 2026-05-07 19:01 | 39.48274 | 18.68291 | 35038 ft | 520 kts | 134° |
| 2026-05-07 19:01 | 39.43877 | 18.75665 | 35054 ft | 520 kts | 134° |
| 2026-05-07 19:02 | 39.39450 | 18.83080 | 35037 ft | 521 kts | 133° |
| 2026-05-07 19:02 | 39.35021 | 18.90507 | 35052 ft | 522 kts | 133° |
| 2026-05-07 19:03 | 39.30583 | 18.97928 | 35044 ft | 522 kts | 134° |
| 2026-05-07 19:03 | 39.26208 | 19.05443 | 35068 ft | 524 kts | 131° |
| 2026-05-07 19:04 | 39.22081 | 19.13214 | 35056 ft | 525 kts | 128° |
| 2026-05-07 19:04 | 39.18006 | 19.21040 | 35053 ft | 525 kts | 129° |
| 2026-05-07 19:05 | 39.13851 | 19.28805 | 35060 ft | 525 kts | 130° |
| 2026-05-07 19:05 | 39.09667 | 19.36458 | 35063 ft | 526 kts | 130° |
| 2026-05-07 19:06 | 39.05445 | 19.44159 | 35075 ft | 526 kts | 130° |
| 2026-05-07 19:06 | 38.99129 | 19.55724 | 35078 ft | 526 kts | 129° |
| 2026-05-07 19:07 | 38.94926 | 19.63421 | 35079 ft | 526 kts | 129° |
| 2026-05-07 19:07 | 38.90719 | 19.71096 | 35084 ft | 525 kts | 130° |
| 2026-05-07 19:08 | 38.86532 | 19.78711 | 35083 ft | 525 kts | 130° |
| 2026-05-07 19:08 | 38.82337 | 19.86323 | 35080 ft | 524 kts | 129° |
| 2026-05-07 19:09 | 38.78122 | 19.93968 | 35082 ft | 524 kts | 129° |
| 2026-05-07 19:09 | 38.73907 | 20.01591 | 35081 ft | 524 kts | 129° |
| 2026-05-07 19:10 | 38.69684 | 20.09189 | 35068 ft | 524 kts | 129° |
| 2026-05-07 19:10 | 38.65453 | 20.16792 | 35067 ft | 525 kts | 129° |
| 2026-05-07 19:11 | 38.61213 | 20.24402 | 35075 ft | 525 kts | 129° |
| 2026-05-07 19:11 | 38.56950 | 20.32018 | 35055 ft | 528 kts | 129° |
| 2026-05-07 19:12 | 38.52670 | 20.39655 | 35062 ft | 530 kts | 129° |
| 2026-05-07 19:12 | 38.48397 | 20.47276 | 35064 ft | 531 kts | 129° |
| 2026-05-07 19:13 | 38.44085 | 20.54949 | 35080 ft | 532 kts | 129° |
| 2026-05-07 19:13 | 38.39765 | 20.62599 | 35097 ft | 532 kts | 129° |
| 2026-05-07 19:14 | 38.35441 | 20.70244 | 35080 ft | 532 kts | 129° |
| 2026-05-07 19:14 | 38.31102 | 20.77898 | 35084 ft | 533 kts | 129° |
| 2026-05-07 19:15 | 38.26757 | 20.85550 | 35090 ft | 533 kts | 128° |
| 2026-05-07 19:15 | 38.22410 | 20.93183 | 35105 ft | 533 kts | 128° |
| 2026-05-07 19:16 | 38.18053 | 21.00822 | 35112 ft | 533 kts | 128° |
| 2026-05-07 19:16 | 38.13688 | 21.08441 | 35122 ft | 533 kts | 129° |
| 2026-05-07 19:17 | 38.09319 | 21.16060 | 35136 ft | 533 kts | 128° |
| 2026-05-07 19:17 | 38.04976 | 21.23627 | 35120 ft | 533 kts | 129° |
| 2026-05-07 19:18 | 38.00595 | 21.31224 | 35135 ft | 533 kts | 129° |
| 2026-05-07 19:18 | 37.96209 | 21.38822 | 35143 ft | 533 kts | 129° |
| 2026-05-07 19:19 | 37.91859 | 21.46341 | 35142 ft | 532 kts | 129° |
| 2026-05-07 19:19 | 37.87447 | 21.53944 | 35142 ft | 532 kts | 129° |
| 2026-05-07 19:20 | 37.83088 | 21.61448 | 35133 ft | 533 kts | 129° |
| 2026-05-07 19:20 | 37.78689 | 21.68993 | 35127 ft | 532 kts | 129° |
| 2026-05-07 19:21 | 37.74289 | 21.76521 | 35130 ft | 532 kts | 129° |
| 2026-05-07 19:21 | 37.69888 | 21.84034 | 35120 ft | 532 kts | 128° |
| 2026-05-07 19:22 | 37.65482 | 21.91550 | 35122 ft | 533 kts | 129° |
| 2026-05-07 19:22 | 37.61067 | 21.99069 | 35141 ft | 533 kts | 129° |
| 2026-05-07 19:23 | 37.56638 | 22.06594 | 35150 ft | 534 kts | 129° |
| 2026-05-07 19:23 | 37.52200 | 22.14095 | 35159 ft | 534 kts | 129° |
| 2026-05-07 19:24 | 37.47782 | 22.21553 | 35156 ft | 534 kts | 128° |
| 2026-05-07 19:24 | 37.43325 | 22.29053 | 35153 ft | 535 kts | 129° |
| 2026-05-07 19:25 | 37.38879 | 22.36553 | 35137 ft | 535 kts | 128° |
| 2026-05-07 19:25 | 37.34512 | 22.44136 | 35147 ft | 536 kts | 127° |
| 2026-05-07 19:26 | 37.30173 | 22.51777 | 35149 ft | 536 kts | 127° |
| 2026-05-07 19:26 | 37.25820 | 22.59391 | 35146 ft | 537 kts | 127° |
| 2026-05-07 19:27 | 37.21435 | 22.66975 | 35147 ft | 537 kts | 128° |
| 2026-05-07 19:27 | 37.17038 | 22.74549 | 35147 ft | 537 kts | 128° |
| 2026-05-07 19:28 | 37.12651 | 22.82121 | 35164 ft | 537 kts | 127° |
| 2026-05-07 19:28 | 37.08256 | 22.89685 | 35140 ft | 538 kts | 128° |
| 2026-05-07 19:29 | 37.03836 | 22.97266 | 35120 ft | 537 kts | 127° |
| 2026-05-07 19:29 | 36.99426 | 23.04827 | 35126 ft | 538 kts | 127° |
| 2026-05-07 19:30 | 36.95014 | 23.12381 | 35147 ft | 538 kts | 127° |
| 2026-05-07 19:30 | 36.90580 | 23.19937 | 35147 ft | 538 kts | 127° |
| 2026-05-07 19:31 | 36.86172 | 23.27428 | 35137 ft | 539 kts | 127° |
| 2026-05-07 19:31 | 36.81727 | 23.34967 | 35150 ft | 539 kts | 127° |
| 2026-05-07 19:32 | 36.77265 | 23.42510 | 35134 ft | 538 kts | 127° |
| 2026-05-07 19:32 | 36.72815 | 23.50010 | 35139 ft | 534 kts | 127° |
| 2026-05-07 19:33 | 36.70635 | 23.53683 | 35125 ft | 519 kts | 127° |
| 2026-05-07 19:33 | 36.68511 | 23.57252 | 35105 ft | 506 kts | 127° |
| 2026-05-07 19:33 | 36.66446 | 23.60715 | 34689 ft | 504 kts | 127° |
| 2026-05-07 19:33 | 36.64325 | 23.64257 | 34166 ft | 504 kts | 128° |
| 2026-05-07 19:34 | 36.62231 | 23.67753 | 33584 ft | 504 kts | 128° |
| 2026-05-07 19:34 | 36.60164 | 23.71206 | 33012 ft | 503 kts | 128° |
| 2026-05-07 19:34 | 36.58076 | 23.74695 | 32460 ft | 503 kts | 128° |
| 2026-05-07 19:34 | 36.55991 | 23.78177 | 31912 ft | 502 kts | 128° |
| 2026-05-07 19:35 | 36.53904 | 23.81662 | 31371 ft | 502 kts | 128° |
| 2026-05-07 19:35 | 36.51815 | 23.85146 | 30840 ft | 501 kts | 128° |
| 2026-05-07 19:35 | 36.49733 | 23.88615 | 30321 ft | 500 kts | 128° |
| 2026-05-07 19:35 | 36.47661 | 23.92063 | 29733 ft | 499 kts | 128° |
| 2026-05-07 19:36 | 36.46253 | 23.94400 | 29345 ft | 497 kts | 128° |
| 2026-05-07 19:36 | 36.44209 | 23.97790 | 28818 ft | 494 kts | 128° |
| 2026-05-07 19:36 | 36.42154 | 24.01192 | 28297 ft | 491 kts | 128° |
| 2026-05-07 19:36 | 36.40109 | 24.04572 | 27781 ft | 487 kts | 128° |
| 2026-05-07 19:37 | 36.38088 | 24.07929 | 27287 ft | 483 kts | 127° |
| 2026-05-07 19:37 | 36.36092 | 24.11264 | 26764 ft | 479 kts | 127° |
| 2026-05-07 19:37 | 36.34116 | 24.14574 | 26269 ft | 475 kts | 127° |
| 2026-05-07 19:37 | 36.32151 | 24.17854 | 25792 ft | 471 kts | 127° |
| 2026-05-07 19:38 | 36.30201 | 24.21098 | 25325 ft | 467 kts | 127° |
| 2026-05-07 19:38 | 36.28262 | 24.24305 | 24851 ft | 463 kts | 128° |
| 2026-05-07 19:38 | 36.26106 | 24.27227 | 24394 ft | 457 kts | 139° |
| 2026-05-07 19:38 | 36.23623 | 24.29662 | 23945 ft | 451 kts | 149° |
| 2026-05-07 19:39 | 36.20902 | 24.31534 | 23452 ft | 444 kts | 159° |
| 2026-05-07 19:39 | 36.18033 | 24.32822 | 22919 ft | 436 kts | 168° |
| 2026-05-07 19:39 | 36.15082 | 24.33537 | 22395 ft | 428 kts | 177° |
| 2026-05-07 19:39 | 36.12135 | 24.33708 | 21884 ft | 420 kts | 186° |
| 2026-05-07 19:40 | 36.09254 | 24.33351 | 21355 ft | 413 kts | 194° |
| 2026-05-07 19:40 | 36.06453 | 24.32588 | 20728 ft | 411 kts | 197° |
| 2026-05-07 19:40 | 36.03664 | 24.31795 | 20120 ft | 411 kts | 197° |
| 2026-05-07 19:40 | 36.00878 | 24.31010 | 19526 ft | 410 kts | 197° |
| 2026-05-07 19:41 | 35.98093 | 24.30227 | 18944 ft | 410 kts | 196° |
| 2026-05-07 19:41 | 35.95362 | 24.29466 | 18371 ft | 408 kts | 196° |
| 2026-05-07 19:41 | 35.92589 | 24.28699 | 17712 ft | 406 kts | 196° |
| 2026-05-07 19:41 | 35.89838 | 24.27937 | 17068 ft | 404 kts | 195° |
| 2026-05-07 19:42 | 35.87100 | 24.27177 | 16430 ft | 401 kts | 195° |
| 2026-05-07 19:42 | 35.84379 | 24.26417 | 15812 ft | 399 kts | 195° |
| 2026-05-07 19:42 | 35.81686 | 24.25663 | 15206 ft | 396 kts | 195° |
| 2026-05-07 19:42 | 35.79011 | 24.24914 | 14616 ft | 392 kts | 195° |
| 2026-05-07 19:43 | 35.76353 | 24.24171 | 14036 ft | 389 kts | 195° |
| 2026-05-07 19:43 | 35.73728 | 24.23438 | 13399 ft | 385 kts | 195° |
| 2026-05-07 19:43 | 35.71129 | 24.22716 | 12762 ft | 381 kts | 195° |
| 2026-05-07 19:43 | 35.68545 | 24.22001 | 12135 ft | 378 kts | 195° |
| 2026-05-07 19:44 | 35.65994 | 24.21296 | 11523 ft | 374 kts | 195° |
| 2026-05-07 19:44 | 35.63454 | 24.20594 | 10917 ft | 372 kts | 195° |
| 2026-05-07 19:44 | 35.60974 | 24.19907 | 10379 ft | 368 kts | 194° |
| 2026-05-07 19:44 | 35.58458 | 24.19714 | 10177 ft | 359 kts | 175° |
| 2026-05-07 19:45 | 35.56132 | 24.20642 | 10158 ft | 346 kts | 152° |
| 2026-05-07 19:45 | 35.54344 | 24.22501 | 10164 ft | 332 kts | 128° |
| 2026-05-07 19:45 | 35.53314 | 24.24952 | 10165 ft | 317 kts | 108° |
| 2026-05-07 19:45 | 35.52592 | 24.27475 | 10159 ft | 313 kts | 110° |
| 2026-05-07 19:46 | 35.51841 | 24.29974 | 9895 ft | 308 kts | 110° |
| 2026-05-07 19:46 | 35.51112 | 24.32390 | 9592 ft | 296 kts | 110° |
| 2026-05-07 19:46 | 35.50410 | 24.34722 | 9286 ft | 286 kts | 110° |
| 2026-05-07 19:46 | 35.49731 | 24.36977 | 8973 ft | 277 kts | 110° |
| 2026-05-07 19:47 | 35.49071 | 24.39163 | 8671 ft | 269 kts | 110° |
| 2026-05-07 19:47 | 35.48428 | 24.41280 | 8377 ft | 263 kts | 110° |
| 2026-05-07 19:47 | 35.47791 | 24.43373 | 8081 ft | 260 kts | 110° |
| 2026-05-07 19:47 | 35.47163 | 24.45435 | 7715 ft | 256 kts | 110° |
| 2026-05-07 19:48 | 35.46546 | 24.47464 | 7289 ft | 253 kts | 110° |
| 2026-05-07 19:48 | 35.45935 | 24.49477 | 6863 ft | 250 kts | 110° |
| 2026-05-07 19:48 | 35.45334 | 24.51460 | 6418 ft | 247 kts | 110° |
| 2026-05-07 19:48 | 35.44739 | 24.53431 | 6006 ft | 243 kts | 111° |
| 2026-05-07 19:49 | 35.43908 | 24.55165 | 5692 ft | 233 kts | 138° |
| 2026-05-07 19:49 | 35.42533 | 24.56052 | 5458 ft | 220 kts | 172° |
| 2026-05-07 19:49 | 35.41104 | 24.55777 | 5284 ft | 205 kts | 215° |
| 2026-05-07 19:49 | 35.40339 | 24.54442 | 5280 ft | 197 kts | 262° |
| 2026-05-07 19:50 | 35.40616 | 24.52810 | 5337 ft | 199 kts | 300° |
| 2026-05-07 19:50 | 35.41281 | 24.51319 | 5342 ft | 200 kts | 292° |
| 2026-05-07 19:50 | 35.41798 | 24.49765 | 5335 ft | 200 kts | 291° |
| 2026-05-07 19:50 | 35.42314 | 24.48183 | 5328 ft | 200 kts | 291° |
| 2026-05-07 19:51 | 35.42831 | 24.46604 | 5329 ft | 200 kts | 291° |
| 2026-05-07 19:51 | 35.43351 | 24.45022 | 5193 ft | 200 kts | 291° |
| 2026-05-07 19:51 | 35.43869 | 24.43445 | 4969 ft | 199 kts | 291° |
| 2026-05-07 19:51 | 35.44384 | 24.41877 | 4714 ft | 198 kts | 291° |
| 2026-05-07 19:52 | 35.44899 | 24.40307 | 4451 ft | 198 kts | 291° |
| 2026-05-07 19:52 | 35.45411 | 24.38745 | 4195 ft | 197 kts | 291° |
| 2026-05-07 19:52 | 35.45923 | 24.37185 | 3948 ft | 197 kts | 291° |
| 2026-05-07 19:52 | 35.46434 | 24.35627 | 3692 ft | 196 kts | 291° |
| 2026-05-07 19:53 | 35.46943 | 24.34072 | 3443 ft | 196 kts | 291° |
| 2026-05-07 19:53 | 35.47447 | 24.32533 | 3182 ft | 190 kts | 290° |
| 2026-05-07 19:53 | 35.47923 | 24.31078 | 2936 ft | 179 kts | 290° |
| 2026-05-07 19:53 | 35.48383 | 24.29672 | 2711 ft | 176 kts | 290° |
| 2026-05-07 19:54 | 35.48835 | 24.28287 | 2478 ft | 174 kts | 290° |
| 2026-05-07 19:54 | 35.49279 | 24.26928 | 2255 ft | 173 kts | 290° |
| 2026-05-07 19:54 | 35.49725 | 24.25561 | 2028 ft | 172 kts | 290° |
| 2026-05-07 19:54 | 35.50172 | 24.24195 | 1803 ft | 171 kts | 290° |
| 2026-05-07 19:55 | 35.50605 | 24.22867 | 1590 ft | 160 kts | 290° |
| 2026-05-07 19:55 | 35.50997 | 24.21666 | 1364 ft | 144 kts | 291° |
| 2026-05-07 19:55 | 35.51360 | 24.20545 | 1180 ft | 139 kts | 290° |
| 2026-05-07 19:55 | 35.51721 | 24.19453 | 972 ft | 137 kts | 291° |
| 2026-05-07 19:56 | 35.52067 | 24.18372 | 769 ft | 135 kts | 290° |
| 2026-05-07 19:56 | 35.52413 | 24.17310 | 602 ft | 133 kts | 291° |
| 2026-05-07 19:56 | 35.52741 | 24.16272 | 487 ft | 126 kts | 291° |
| 2026-05-07 19:56 | 35.53022 | 24.15435 | 466 ft | 86 kts | 291° |
| 2026-05-07 19:57 | 35.53205 | 24.14873 | 456 ft | 59 kts | 291° |
| 2026-05-07 19:57 | 35.53334 | 24.14497 | 450 ft | 38 kts | 294° |
| 2026-05-07 19:57 | 35.53423 | 24.14272 | 447 ft | 19 kts | 341° |
| 2026-05-07 19:57 | 35.53525 | 24.14302 | 446 ft | 13 kts | 20° |
| 2026-05-07 19:58 | 35.53595 | 24.14336 | 432 ft | 10 kts | 22° |
| 2026-05-07 19:58 | 35.53665 | 24.14366 | 443 ft | 11 kts | 359° |
| 2026-05-07 19:58 | 35.53699 | 24.14304 | 440 ft | 5 kts | 291° |
| 2026-05-07 19:58 | 35.53714 | 24.14258 | 439 ft | 8 kts | 291° |
| 2026-05-07 19:59 | 35.53738 | 24.14181 | 431 ft | 11 kts | 291° |
| 2026-05-07 19:59 | 35.53774 | 24.14075 | 436 ft | 15 kts | 292° |
| 2026-05-07 19:59 | 35.53824 | 24.14007 | 436 ft | 8 kts | 36° |